createdAt,value
2022-12-03T00:01:17.077Z,84.97
2022-12-03T00:03:43.809Z,84.81
2022-12-03T00:06:10.528Z,84.70
2022-12-03T00:08:38.180Z,84.19
2022-12-03T00:11:06.172Z,84.22
2022-12-03T00:13:33.040Z,83.98
2022-12-03T00:15:59.812Z,84.19
2022-12-03T00:18:26.659Z,84.40
2022-12-03T00:20:53.631Z,84.45
2022-12-03T00:23:20.360Z,84.62
2022-12-03T00:25:47.134Z,84.67
2022-12-03T00:28:15.210Z,84.74
2022-12-03T00:30:41.988Z,84.67
2022-12-03T00:33:09.679Z,83.92
2022-12-03T00:35:37.659Z,82.44
2022-12-03T00:38:04.469Z,82.00
2022-12-03T00:40:33.593Z,81.41
2022-12-03T00:43:03.080Z,81.20
2022-12-03T00:45:31.106Z,81.79
2022-12-03T00:47:57.681Z,82.22
2022-12-03T00:50:24.297Z,80.60
2022-12-03T00:52:50.860Z,80.43
2022-12-03T00:55:18.320Z,80.58
2022-12-03T00:57:44.895Z,80.04
2022-12-03T01:00:13.155Z,80.46
2022-12-03T01:02:41.212Z,80.24
2022-12-03T01:05:08.740Z,80.12
2022-12-03T01:07:36.230Z,78.56
2022-12-03T01:10:04.925Z,79.88
2022-12-03T01:12:31.792Z,80.75
2022-12-03T01:14:58.344Z,81.40
2022-12-03T01:17:26.718Z,81.04
2022-12-03T01:19:54.796Z,81.59
2022-12-03T01:22:21.421Z,82.10
2022-12-03T01:24:48.005Z,80.79
2022-12-03T01:27:15.012Z,80.03
2022-12-03T01:29:41.570Z,79.34
2022-12-03T01:32:09.252Z,79.75
2022-12-03T01:34:36.129Z,79.06
2022-12-03T01:37:08.159Z,79.29
2022-12-03T01:39:35.075Z,79.04
2022-12-03T01:42:02.474Z,77.95
2022-12-03T01:44:32.307Z,78.69
2022-12-03T01:47:04.224Z,78.48
2022-12-03T01:49:36.701Z,78.67
2022-12-03T01:52:05.869Z,78.11
2022-12-03T01:54:39.976Z,78.15
2022-12-03T01:57:20.343Z,78.04
2022-12-03T01:59:49.318Z,78.64
2022-12-03T02:02:19.947Z,78.47
2022-12-03T02:04:47.016Z,78.37
2022-12-03T02:07:24.157Z,77.92
2022-12-03T02:09:54.507Z,78.67
2022-12-03T02:12:25.640Z,77.54
2022-12-03T02:14:53.661Z,78.23
2022-12-03T02:17:20.500Z,78.57
2022-12-03T02:19:48.282Z,78.72
2022-12-03T02:22:25.922Z,79.07
2022-12-03T02:24:59.732Z,78.62
2022-12-03T02:27:29.072Z,78.75
2022-12-03T02:29:56.567Z,79.44
2022-12-03T02:32:23.922Z,79.54
2022-12-03T02:34:51.449Z,79.28
2022-12-03T02:37:22.432Z,78.70
2022-12-03T02:39:51.568Z,78.26
2022-12-03T02:42:19.574Z,78.34
2022-12-03T02:44:47.516Z,77.81
2022-12-03T02:47:14.245Z,77.51
2022-12-03T02:49:41.713Z,77.80
2022-12-03T02:52:08.344Z,76.72
2022-12-03T02:54:35.696Z,76.75
2022-12-03T02:57:02.568Z,77.35
2022-12-03T02:59:29.288Z,76.87
2022-12-03T03:01:58.562Z,77.36
2022-12-03T03:04:25.980Z,77.70
2022-12-03T03:06:53.112Z,77.63
2022-12-03T03:09:21.241Z,76.44
2022-12-03T03:11:48.491Z,76.52
2022-12-03T03:14:17.034Z,75.82
2022-12-03T03:16:44.183Z,76.66
2022-12-03T03:19:12.425Z,76.59
2022-12-03T03:21:39.420Z,76.80
2022-12-03T03:24:08.347Z,75.97
2022-12-03T03:26:36.040Z,76.63
2022-12-03T03:29:02.697Z,76.24
2022-12-03T03:31:29.424Z,76.95
2022-12-03T03:33:56.509Z,76.20
2022-12-03T03:36:25.528Z,77.05
2022-12-03T03:38:52.752Z,77.52
2022-12-03T03:41:20.638Z,78.09
2022-12-03T03:43:49.426Z,76.72
2022-12-03T03:46:18.112Z,77.12
2022-12-03T03:48:45.428Z,77.21
2022-12-03T03:51:13.185Z,77.31
2022-12-03T03:53:45.773Z,76.11
2022-12-03T03:56:12.553Z,75.91
2022-12-03T03:58:41.630Z,76.03
2022-12-03T04:01:11.320Z,77.02
2022-12-03T04:03:38.276Z,76.84
2022-12-03T04:06:05.374Z,77.45
2022-12-03T04:08:32.208Z,75.93
2022-12-03T04:11:00.225Z,74.73
2022-12-03T04:13:27.249Z,75.98
2022-12-03T04:15:54.821Z,76.50
2022-12-03T04:18:22.760Z,76.83
2022-12-03T04:20:49.457Z,76.29
2022-12-03T04:23:16.690Z,75.70
2022-12-03T04:25:50.844Z,75.89
2022-12-03T04:28:21.255Z,76.45
2022-12-03T04:30:47.868Z,75.37
2022-12-03T04:33:15.088Z,75.84
2022-12-03T04:35:42.511Z,76.22
2022-12-03T04:38:09.700Z,77.04
2022-12-03T04:40:36.680Z,77.29
2022-12-03T04:43:03.525Z,76.99
2022-12-03T04:45:31.640Z,77.65
2022-12-03T04:47:59.489Z,77.69
2022-12-03T04:50:26.135Z,77.70
2022-12-03T04:52:52.898Z,77.66
2022-12-03T04:55:19.813Z,77.78
2022-12-03T04:57:46.740Z,78.41
2022-12-03T05:00:14.920Z,78.70
2022-12-03T05:02:44.204Z,78.64
2022-12-03T05:05:11.647Z,78.92
2022-12-03T05:07:39.904Z,78.80
2022-12-03T05:10:07.762Z,79.34
2022-12-03T05:12:34.882Z,78.65
2022-12-03T05:15:01.785Z,78.54
2022-12-03T05:17:28.568Z,78.04
2022-12-03T05:19:57.073Z,77.80
2022-12-03T05:22:23.638Z,77.23
2022-12-03T05:24:50.369Z,76.92
2022-12-03T05:27:23.122Z,77.30
2022-12-03T05:29:51.544Z,78.23
2022-12-03T05:32:18.599Z,78.09
2022-12-03T05:34:45.246Z,78.54
2022-12-03T05:37:13.314Z,78.72
2022-12-03T05:39:40.076Z,79.22
2022-12-03T05:42:09.569Z,79.45
2022-12-03T05:44:36.192Z,79.35
2022-12-03T05:47:03.832Z,77.67
2022-12-03T05:49:31.188Z,77.92
2022-12-03T05:51:58.868Z,78.14
2022-12-03T05:54:27.858Z,78.05
2022-12-03T05:56:55.670Z,78.82
2022-12-03T05:59:22.602Z,79.59
2022-12-03T06:01:53.829Z,79.48
2022-12-03T06:04:20.469Z,79.77
2022-12-03T06:06:48.409Z,79.79
2022-12-03T06:09:15.120Z,79.52
2022-12-03T06:11:46.356Z,79.85
2022-12-03T06:14:13.081Z,79.30
2022-12-03T06:16:40.989Z,79.67
2022-12-03T06:19:10.041Z,79.81
2022-12-03T06:21:37.027Z,79.87
2022-12-03T06:24:04.868Z,80.06
2022-12-03T06:26:31.449Z,79.94
2022-12-03T06:29:00.922Z,80.12
2022-12-03T06:31:27.838Z,80.01
2022-12-03T06:33:54.457Z,80.35
2022-12-03T06:36:23.323Z,80.41
2022-12-03T06:38:50.209Z,80.68
2022-12-03T06:41:16.781Z,80.76
2022-12-03T06:43:43.377Z,80.45
2022-12-03T06:46:11.415Z,80.67
2022-12-03T06:48:39.045Z,80.91
2022-12-03T06:51:06.123Z,80.88
2022-12-03T06:53:32.820Z,81.01
2022-12-03T06:56:00.412Z,80.95
2022-12-03T06:58:27.246Z,81.13
2022-12-03T07:00:53.947Z,81.29
2022-12-03T07:03:21.923Z,81.08
2022-12-03T07:05:49.991Z,81.14
2022-12-03T07:08:16.794Z,81.16
2022-12-03T07:10:43.723Z,81.35
2022-12-03T07:13:10.298Z,81.50
2022-12-03T07:15:37.034Z,81.24
2022-12-03T07:18:05.261Z,81.43
2022-12-03T07:20:33.984Z,81.50
2022-12-03T07:23:01.746Z,81.26
2022-12-03T07:25:28.496Z,81.44
2022-12-03T07:27:56.256Z,81.14
2022-12-03T07:30:22.977Z,81.42
2022-12-03T07:32:50.214Z,81.05
2022-12-03T07:35:17.056Z,81.45
2022-12-03T07:37:44.975Z,81.45
2022-12-03T07:40:12.698Z,81.53
2022-12-03T07:42:39.390Z,81.60
2022-12-03T07:45:08.760Z,81.64
2022-12-03T07:47:35.338Z,81.86
2022-12-03T07:50:01.874Z,82.10
2022-12-03T07:52:34.025Z,82.45
2022-12-03T07:55:02.241Z,82.42
2022-12-03T07:57:30.173Z,82.48
2022-12-03T07:59:58.096Z,81.95
2022-12-03T08:02:24.822Z,82.05
2022-12-03T08:04:55.317Z,82.26
2022-12-03T08:07:22.349Z,82.28
2022-12-03T08:09:49.703Z,82.12
2022-12-03T08:12:24.719Z,82.12
2022-12-03T08:14:51.718Z,81.61
2022-12-03T08:17:19.445Z,81.84
2022-12-03T08:19:47.931Z,81.81
2022-12-03T08:22:16.167Z,82.10
2022-12-03T08:24:42.927Z,81.90
2022-12-03T08:27:17.721Z,81.82
2022-12-03T08:29:46.188Z,81.67
2022-12-03T08:32:13.301Z,81.81
2022-12-03T08:34:43.928Z,79.37
2022-12-03T08:37:16.300Z,79.36
2022-12-03T08:39:45.905Z,78.42
2022-12-03T08:42:16.343Z,77.70
2022-12-03T08:44:42.986Z,77.72
2022-12-03T08:47:19.351Z,77.34
2022-12-03T08:49:51.150Z,76.62
2022-12-03T08:52:20.472Z,76.64
2022-12-03T08:54:51.565Z,77.17
2022-12-03T08:57:27.165Z,77.36
2022-12-03T08:59:58.175Z,77.69
2022-12-03T09:02:31.639Z,76.33
2022-12-03T09:04:59.412Z,74.44
2022-12-03T09:07:26.052Z,74.88
2022-12-03T09:09:52.773Z,74.09
2022-12-03T09:12:19.741Z,75.41
2022-12-03T09:14:46.578Z,75.80
2022-12-03T09:17:13.280Z,75.25
2022-12-03T09:19:45.740Z,74.66
2022-12-03T09:22:13.120Z,74.65
2022-12-03T09:24:41.675Z,74.99
2022-12-03T09:27:08.454Z,73.65
2022-12-03T09:29:35.429Z,74.25
2022-12-03T09:32:02.160Z,74.98
2022-12-03T09:34:28.963Z,74.63
2022-12-03T09:36:57.053Z,74.96
2022-12-03T09:39:23.832Z,74.19
2022-12-03T09:41:50.694Z,74.45
2022-12-03T09:44:18.448Z,73.78
2022-12-03T09:46:46.625Z,73.68
2022-12-03T09:49:16.421Z,74.00
2022-12-03T09:51:44.582Z,73.62
2022-12-03T09:54:21.292Z,73.71
2022-12-03T09:56:48.311Z,73.34
2022-12-03T09:59:16.282Z,72.64
2022-12-03T10:01:43.419Z,72.18
2022-12-03T10:04:10.598Z,72.23
2022-12-03T10:06:43.971Z,72.42
2022-12-03T10:09:17.353Z,73.03
2022-12-03T10:11:44.444Z,72.87
2022-12-03T10:14:14.152Z,72.31
2022-12-03T10:16:41.329Z,72.50
2022-12-03T10:19:16.051Z,72.59
2022-12-03T10:21:42.713Z,72.08
2022-12-03T10:24:25.599Z,72.12
2022-12-03T10:26:55.022Z,71.56
2022-12-03T10:29:29.666Z,72.30
2022-12-03T10:32:01.653Z,71.28
2022-12-03T10:34:29.803Z,71.06
2022-12-03T10:37:10.994Z,71.71
2022-12-03T10:40:10.779Z,70.74
2022-12-03T10:42:39.490Z,70.85
2022-12-03T10:45:18.064Z,71.88
2022-12-03T10:48:02.823Z,71.45
2022-12-03T10:50:29.597Z,71.47
2022-12-03T10:52:56.171Z,72.37
2022-12-03T10:55:24.570Z,72.17
2022-12-03T10:57:51.645Z,72.27
2022-12-03T11:00:19.838Z,72.90
2022-12-03T11:02:53.348Z,72.80
2022-12-03T11:05:26.740Z,70.69
2022-12-03T11:07:53.953Z,70.73
2022-12-03T11:10:21.341Z,70.82
2022-12-03T11:13:21.274Z,71.34
2022-12-03T11:15:49.372Z,71.77
2022-12-03T11:18:45.724Z,71.65
2022-12-03T11:21:13.778Z,70.50
2022-12-03T11:24:03.293Z,71.37
2022-12-03T11:27:15.068Z,70.93
2022-12-03T11:29:58.575Z,71.08
2022-12-03T11:33:04.136Z,71.90
2022-12-03T11:36:12.428Z,71.99
2022-12-03T11:38:53.609Z,71.21
2022-12-03T11:41:24.069Z,70.85
2022-12-03T11:44:16.841Z,70.64
2022-12-03T11:46:45.077Z,71.25
2022-12-03T11:49:37.634Z,72.38
2022-12-03T11:52:20.224Z,72.63
2022-12-03T11:54:52.375Z,72.88
2022-12-03T11:57:26.579Z,72.63
2022-12-03T12:00:01.812Z,72.58
2022-12-03T12:02:38.559Z,71.41
2022-12-03T12:05:21.978Z,71.26
2022-12-03T12:07:49.451Z,71.53
2022-12-03T12:10:39.011Z,71.28
2022-12-03T12:13:05.850Z,72.03
2022-12-03T12:15:34.650Z,72.04
2022-12-03T12:18:35.594Z,72.30
2022-12-03T12:21:40.061Z,71.03
2022-12-03T12:24:29.193Z,70.72
2022-12-03T12:26:57.918Z,71.65
2022-12-03T12:29:25.395Z,72.18
2022-12-03T12:31:57.384Z,72.20
2022-12-03T12:34:24.923Z,71.09
2022-12-03T12:36:52.044Z,70.65
2022-12-03T12:39:18.731Z,70.86
2022-12-03T12:41:48.942Z,71.22
2022-12-03T12:44:17.099Z,71.12
2022-12-03T12:46:48.188Z,71.54
2022-12-03T12:49:15.805Z,71.71
2022-12-03T12:51:44.446Z,71.81
2022-12-03T12:54:13.888Z,71.83
2022-12-03T12:56:42.958Z,70.33
2022-12-03T12:59:12.408Z,71.03
2022-12-03T13:01:41.976Z,70.88
2022-12-03T13:04:11.839Z,70.49
2022-12-03T13:06:38.961Z,71.06
2022-12-03T13:09:12.601Z,70.99
2022-12-03T13:11:41.289Z,71.52
2022-12-03T13:14:14.830Z,71.52
2022-12-03T13:16:43.369Z,70.80
2022-12-03T13:19:24.104Z,71.22
2022-12-03T13:21:52.302Z,72.05
2022-12-03T13:24:29.847Z,72.16
2022-12-03T13:26:57.068Z,72.56
2022-12-03T13:29:25.579Z,72.46
2022-12-03T13:31:56.290Z,72.21
2022-12-03T13:34:24.922Z,72.09
2022-12-03T13:36:57.510Z,72.44
2022-12-03T13:39:29.437Z,72.77
2022-12-03T13:41:56.769Z,72.83
2022-12-03T13:44:23.345Z,72.47
2022-12-03T13:46:50.001Z,72.62
2022-12-03T13:49:21.386Z,72.89
2022-12-03T13:51:49.011Z,72.49
2022-12-03T13:54:20.503Z,71.99
2022-12-03T13:56:48.572Z,72.77
2022-12-03T13:59:15.353Z,72.88
2022-12-03T14:01:42.426Z,72.41
2022-12-03T14:04:09.106Z,72.71
2022-12-03T14:06:37.224Z,73.45
2022-12-03T14:09:04.433Z,73.44
2022-12-03T14:11:31.111Z,73.68
2022-12-03T14:13:57.637Z,73.81
2022-12-03T14:16:24.364Z,73.14
2022-12-03T14:18:51.031Z,73.20
2022-12-03T14:21:17.743Z,73.43
2022-12-03T14:23:45.670Z,73.55
2022-12-03T14:26:13.666Z,73.95
2022-12-03T14:28:42.810Z,73.95
2022-12-03T14:31:09.643Z,73.79
2022-12-03T14:33:36.638Z,73.79
2022-12-03T14:36:04.017Z,72.98
2022-12-03T14:38:30.625Z,73.34
2022-12-03T14:40:58.609Z,72.71
2022-12-03T14:43:25.131Z,73.27
2022-12-03T14:45:51.856Z,72.87
2022-12-03T14:48:20.742Z,72.41
2022-12-03T14:50:47.321Z,72.62
2022-12-03T14:53:13.867Z,73.18
2022-12-03T14:55:40.444Z,73.04
2022-12-03T14:58:08.327Z,73.58
2022-12-03T15:00:34.908Z,73.59
2022-12-03T15:03:01.477Z,73.26
2022-12-03T15:05:29.003Z,73.96
2022-12-03T15:07:56.123Z,74.61
2022-12-03T15:10:24.946Z,74.48
2022-12-03T15:12:51.444Z,74.45
2022-12-03T15:15:19.425Z,74.54
2022-12-03T15:18:01.102Z,74.31
2022-12-03T15:20:27.704Z,73.43
2022-12-03T15:22:54.392Z,74.09
2022-12-03T15:25:22.014Z,74.64
2022-12-03T15:27:49.900Z,74.80
2022-12-03T15:30:17.177Z,74.68
2022-12-03T15:32:45.117Z,74.46
2022-12-03T15:35:11.853Z,74.73
2022-12-03T15:37:38.357Z,74.37
2022-12-03T15:40:06.759Z,74.35
2022-12-03T15:42:33.299Z,74.26
2022-12-03T15:44:59.849Z,73.98
2022-12-03T15:47:26.361Z,73.90
2022-12-03T15:49:54.611Z,73.76
2022-12-03T15:52:21.382Z,73.43
2022-12-03T15:54:47.989Z,73.83
2022-12-03T15:57:14.529Z,74.50
2022-12-03T15:59:41.192Z,74.42
2022-12-03T16:02:07.994Z,73.99
2022-12-03T16:04:35.462Z,74.31
2022-12-03T16:07:03.382Z,74.02
2022-12-03T16:09:30.255Z,74.88
2022-12-03T16:11:56.806Z,74.29
2022-12-03T16:14:23.660Z,73.81
2022-12-03T16:16:50.189Z,74.22
2022-12-03T16:19:16.782Z,74.17
2022-12-03T16:21:43.389Z,74.45
2022-12-03T16:24:11.845Z,74.59
2022-12-03T16:26:38.506Z,74.55
2022-12-03T16:29:05.165Z,74.39
2022-12-03T16:31:32.232Z,74.95
2022-12-03T16:33:58.972Z,74.35
2022-12-03T16:36:25.649Z,75.04
2022-12-03T16:38:52.556Z,74.65
2022-12-03T16:41:22.154Z,74.52
2022-12-03T16:43:49.032Z,74.92
2022-12-03T16:46:16.308Z,74.65
2022-12-03T16:48:43.383Z,74.31
2022-12-03T16:51:10.055Z,73.07
2022-12-03T16:53:36.873Z,73.83
2022-12-03T16:56:03.989Z,74.39
2022-12-03T16:58:32.564Z,74.88
2022-12-03T17:00:59.101Z,75.00
2022-12-03T17:03:30.522Z,75.09
2022-12-03T17:06:01.025Z,75.22
2022-12-03T17:08:27.846Z,74.89
2022-12-03T17:10:55.786Z,75.11
2022-12-03T17:13:22.761Z,74.66
2022-12-03T17:15:51.131Z,74.86
2022-12-03T17:18:17.829Z,73.70
2022-12-03T17:20:46.052Z,73.95
2022-12-03T17:23:12.569Z,73.65
2022-12-03T17:25:39.308Z,72.97
2022-12-03T17:28:06.031Z,73.68
2022-12-03T17:30:32.716Z,73.57
2022-12-03T17:33:00.758Z,74.21
2022-12-03T17:35:29.008Z,74.57
2022-12-03T17:37:55.668Z,74.44
2022-12-03T17:40:22.369Z,73.89
2022-12-03T17:42:49.260Z,74.49
2022-12-03T17:45:16.259Z,74.16
2022-12-03T17:47:42.793Z,74.09
2022-12-03T17:50:11.715Z,74.69
2022-12-03T17:52:38.360Z,74.86
2022-12-03T17:55:12.933Z,75.19
2022-12-03T17:57:43.168Z,75.20
2022-12-03T18:00:10.839Z,75.01
2022-12-03T18:02:41.802Z,75.25
2022-12-03T18:05:10.921Z,75.14
2022-12-03T18:07:37.510Z,74.88
2022-12-03T18:10:05.573Z,75.00
2022-12-03T18:12:32.716Z,75.27
2022-12-03T18:14:59.342Z,75.08
2022-12-03T18:17:25.877Z,74.82
2022-12-03T18:19:52.841Z,74.31
2022-12-03T18:22:21.270Z,74.69
2022-12-03T18:24:51.507Z,74.80
2022-12-03T18:27:20.187Z,74.75
2022-12-03T18:29:46.797Z,74.88
2022-12-03T18:32:27.758Z,74.93
2022-12-03T18:34:54.791Z,75.10
2022-12-03T18:37:25.905Z,74.56
2022-12-03T18:39:53.094Z,75.17
2022-12-03T18:42:21.581Z,75.63
2022-12-03T18:44:50.632Z,75.80
2022-12-03T18:47:19.128Z,76.07
2022-12-03T18:49:46.085Z,75.55
2022-12-03T18:52:14.094Z,75.72
2022-12-03T18:54:42.507Z,75.16
2022-12-03T18:57:09.424Z,75.22
2022-12-03T18:59:36.769Z,75.75
2022-12-03T19:02:03.946Z,75.43
2022-12-03T19:04:31.080Z,75.98
2022-12-03T19:06:57.672Z,76.40
2022-12-03T19:09:24.312Z,76.65
2022-12-03T19:11:52.264Z,76.66
2022-12-03T19:14:18.880Z,76.33
2022-12-03T19:16:45.493Z,76.85
2022-12-03T19:19:12.435Z,76.32
2022-12-03T19:21:39.086Z,76.17
2022-12-03T19:26:54.627Z,75.39
2022-12-03T19:29:22.120Z,75.88
2022-12-03T19:31:50.152Z,75.47
2022-12-03T19:34:16.824Z,76.34
2022-12-03T19:36:43.838Z,75.83
2022-12-03T19:39:10.464Z,75.95
2022-12-03T19:41:37.125Z,75.97
2022-12-03T19:44:10.726Z,75.74
2022-12-03T19:46:37.703Z,75.48
2022-12-03T19:49:04.325Z,76.12
2022-12-03T19:51:35.356Z,76.36
2022-12-03T19:54:03.288Z,76.47
2022-12-03T19:56:29.914Z,75.55
2022-12-03T19:58:56.932Z,76.11
2022-12-03T20:01:26.733Z,76.21
2022-12-03T20:03:55.619Z,75.62
2022-12-03T20:06:24.313Z,75.38
2022-12-03T20:08:52.130Z,75.00
2022-12-03T20:11:20.510Z,75.41
2022-12-03T20:13:48.211Z,75.50
2022-12-03T20:16:16.083Z,75.62
2022-12-03T20:18:46.857Z,75.00
2022-12-03T20:21:15.615Z,75.44
2022-12-03T20:23:42.239Z,76.04
2022-12-03T20:26:10.017Z,76.14
2022-12-03T20:28:36.923Z,76.18
2022-12-03T20:31:06.904Z,75.38
2022-12-03T20:33:33.657Z,75.79
2022-12-03T20:36:01.639Z,76.00
2022-12-03T20:38:28.959Z,76.45
2022-12-03T20:40:55.471Z,75.71
2022-12-03T20:43:22.336Z,76.74
2022-12-03T20:45:48.924Z,76.78
2022-12-03T20:48:15.579Z,76.48
2022-12-03T20:50:42.350Z,75.65
2022-12-03T20:53:24.270Z,76.33
2022-12-03T20:55:55.445Z,76.59
2022-12-03T20:58:22.080Z,76.92
2022-12-03T21:00:48.669Z,76.36
2022-12-03T21:03:15.295Z,76.17
2022-12-03T21:05:41.997Z,76.28
2022-12-03T21:08:10.583Z,76.96
2022-12-03T21:10:37.673Z,76.63
2022-12-03T21:13:04.580Z,76.73
2022-12-03T21:15:31.812Z,77.25
2022-12-03T21:17:58.448Z,77.47
2022-12-03T21:20:25.482Z,77.99
2022-12-03T21:22:52.042Z,77.32
2022-12-03T21:25:20.274Z,77.02
2022-12-03T21:27:46.897Z,77.35
2022-12-03T21:30:14.034Z,77.03
2022-12-03T21:32:40.579Z,76.89
2022-12-03T21:35:09.003Z,77.30
2022-12-03T21:37:35.508Z,76.72
2022-12-03T21:40:02.722Z,76.72
2022-12-03T21:42:36.043Z,76.37
2022-12-03T21:45:04.838Z,76.90
2022-12-03T21:47:36.861Z,76.79
2022-12-03T21:50:05.139Z,76.89
2022-12-03T21:52:31.690Z,77.07
2022-12-03T21:54:58.292Z,76.38
2022-12-03T21:57:24.808Z,76.62
2022-12-03T21:59:53.179Z,76.16
2022-12-03T22:02:20.094Z,75.93
2022-12-03T22:04:49.740Z,76.45
2022-12-03T22:07:16.992Z,76.33
2022-12-03T22:09:43.806Z,76.59
2022-12-03T22:12:10.687Z,77.14
2022-12-03T22:14:37.276Z,76.97
2022-12-03T22:17:05.708Z,76.88
2022-12-03T22:19:32.511Z,76.66
2022-12-03T22:22:03.920Z,76.92
2022-12-03T22:24:30.539Z,77.00
2022-12-03T22:26:57.296Z,76.99
2022-12-03T22:29:24.945Z,76.52
2022-12-03T22:31:52.154Z,76.96
2022-12-03T22:34:20.132Z,76.79
2022-12-03T22:36:46.934Z,77.14
2022-12-03T22:39:13.551Z,77.10
2022-12-03T22:41:40.051Z,77.08
2022-12-03T22:44:06.666Z,77.04
2022-12-03T22:46:34.026Z,77.20
2022-12-03T22:49:06.712Z,76.84
2022-12-03T22:51:35.410Z,76.16
2022-12-03T22:54:01.989Z,76.44
2022-12-03T22:56:30.009Z,76.39
2022-12-03T22:58:56.629Z,76.59
2022-12-03T23:01:24.966Z,76.69
2022-12-03T23:03:51.696Z,77.24
2022-12-03T23:06:20.447Z,76.71
2022-12-03T23:08:49.225Z,77.22
2022-12-03T23:11:16.381Z,77.25
2022-12-03T23:13:43.022Z,77.37
2022-12-03T23:16:14.335Z,76.69
2022-12-03T23:18:41.299Z,76.84
2022-12-03T23:21:08.386Z,76.87
2022-12-03T23:23:35.252Z,76.89
2022-12-03T23:26:06.436Z,76.81
2022-12-03T23:28:36.159Z,76.67
2022-12-03T23:31:04.258Z,76.82
2022-12-03T23:33:36.674Z,76.85
2022-12-03T23:36:05.391Z,76.64
2022-12-03T23:38:32.210Z,77.03
2022-12-03T23:41:04.929Z,77.21
2022-12-03T23:43:31.574Z,76.88
2022-12-03T23:46:03.062Z,76.97
2022-12-03T23:48:29.662Z,77.28
2022-12-03T23:50:56.276Z,76.49
2022-12-03T23:53:24.409Z,76.77
2022-12-03T23:55:51.000Z,77.31
2022-12-03T23:58:19.243Z,77.31
